Terminal Aerodrome Forecast
Issued by NWS

Current Version | Previous Version | Graphics & Text | Print | Product List | Glossary On
Versions: 1 2 3 4 5 6 7 8 9 10 11 12 13 14 15 16 17 18 19 20 21 22 23 24 25 26 27 28 29 30 31 32 33 34 35 36 37 38 39 40 41
000
FTUS41 KRNK 272341 RRA
TAFLWB
TAF
KLWB 272341Z 2800/2818 25006KT P6SM SCT035 BKN080 OVC250
     FM280200 26007KT P6SM VCTS BKN027CB OVC050
      TEMPO 2802/2806 3SM -TSRA BR BKN017CB
     FM280600 27010G16KT 4SM -SHRA BR BKN017 OVC027
     FM281000 27007KT P6SM VCSH OVC017
     FM281400 27012G20KT P6SM OVC025=

USA.gov is the U.S. government's official web portal to all federal, state and local government web resources and services.